Ak Hamburg — 3FCK3 — position and weather

sailwx.info

Track history (hours):
 
Tides and Currents Weather Stations Pressure Air Temp Water Temp Dewpoint Dewpoint Depression Visibility Wind Speed Wind Dir Waves Ship Positions

Ak Hamburg

Last reported at 2017-Oct-06 18:19 UTC. Time now 2017-Oct-17 08:15 UTC.
Position N 40°54' E 028°47'.
Warning: this ship's position is 10 days out of date.

Length 114 m; draft 7.8 m.

Type: Ship. MMSI: 357474000.

Date/timePositionNaut miles runAvg speedWind from/ knotsBaromVisibWave heightAir tempDewpointWater temp
2017-Oct-06 18:19N 40°54' E 028°47'511.0
2017-Oct-06 17:53N 40°56' E 028°53'410.6
2017-Oct-06 17:30N 40°58' E 028°57'95 7.6
2017-Oct-06 05:00N 42°29' E 029°36'6 9.6
2017-Oct-06 04:21N 42°35' E 029°38'3 9.6
2017-Oct-06 04:00N 42°38' E 029°39'5 9.9
2017-Oct-06 03:30N 42°43' E 029°41'510.0
2017-Oct-06 03:00N 42°48' E 029°43'5 9.8
2017-Oct-06 02:30N 42°53' E 029°45'5 9.7
2017-Oct-06 02:00N 42°57' E 029°46'5 9.7
2017-Oct-06 01:30N 43°02' E 029°48'510.0
2017-Oct-06 00:59N 43°07' E 029°51'510.0
2017-Oct-06 00:31N 43°12' E 029°52'510.1
2017-Oct-06 00:00N 43°17' E 029°54'510.1
2017-Oct-05 23:30N 43°21' E 029°56'510.1
2017-Oct-05 23:01N 43°26' E 029°58'510.0
2017-Oct-05 22:30N 43°31' E 030°00'510.0
2017-Oct-05 22:01N 43°36' E 030°02'510.0
2017-Oct-05 21:30N 43°40' E 030°04'510.0
2017-Oct-05 21:01N 43°45' E 030°06'510.0
2017-Oct-05 20:30N 43°50' E 030°08'5 9.8
2017-Oct-05 20:01N 43°55' E 030°10'5 9.8
2017-Oct-05 19:31N 43°59' E 030°12'5 9.8
2017-Oct-05 19:01N 44°04' E 030°14'510.1
2017-Oct-05 18:28N 44°09' E 030°16'510.2
2017-Oct-05 18:00N 44°14' E 030°18'5 9.8
2017-Oct-05 17:31N 44°19' E 030°20'5 9.6
2017-Oct-05 17:01N 44°23' E 030°22'15 9.9
2017-Oct-05 15:31N 44°37' E 030°27'103 9.8
2017-Oct-05 05:00N 46°18' E 030°53'510.5
2017-Oct-05 04:30N 46°23' E 030°51'5 9.9
2017-Oct-05 04:01N 46°28' E 030°49'3 5.9
2017-Oct-05 03:30N 46°30' E 030°45'1 1.1
2017-Oct-05 02:53N 46°29' E 030°45'0 0.0
2017-Oct-05 02:23N 46°29' E 030°45'0 0.0
2017-Oct-05 01:59N 46°29' E 030°45'0 0.0
2017-Oct-05 01:29N 46°29' E 030°45'0 0.0
2017-Oct-05 00:59N 46°29' E 030°45'0 0.0
2017-Oct-05 00:20N 46°29' E 030°45'0 0.0
2017-Oct-04 23:59N 46°29' E 030°45'0 0.0
2017-Oct-04 23:23N 46°29' E 030°45'0 0.0
2017-Oct-04 22:59N 46°29' E 030°45'0 0.0
2017-Oct-04 22:23N 46°29' E 030°45'0 0.0
2017-Oct-04 21:59N 46°29' E 030°45'0 0.0
2017-Oct-04 21:26N 46°29' E 030°45'0 0.0
2017-Oct-04 20:59N 46°29' E 030°45'0 0.0
2017-Oct-04 20:29N 46°29' E 030°45'0 0.0
2017-Oct-04 19:53N 46°29' E 030°45'0 0.0
2017-Oct-04 19:29N 46°29' E 030°45'0 0.0
2017-Oct-04 18:44N 46°29' E 030°45'0 0.0
2017-Oct-04 18:17N 46°29' E 030°45'0 0.0
2017-Oct-04 17:44N 46°29' E 030°45'0 0.0
2017-Oct-04 17:11N 46°29' E 030°45'0 0.0
2017-Oct-04 16:56N 46°29' E 030°45'0 0.0
2017-Oct-04 16:29N 46°29' E 030°45'0 0.0
2017-Oct-04 15:41N 46°29' E 030°45'0 0.1
2017-Oct-04 15:29N 46°29' E 030°45'0 0.0
2017-Oct-04 14:59N 46°29' E 030°45'0 0.0
2017-Oct-04 14:29N 46°29' E 030°45'0 0.0
2017-Oct-04 13:59N 46°29' E 030°45'0 0.0
2017-Oct-04 13:26N 46°29' E 030°45'0 0.0
2017-Oct-04 12:53N 46°29' E 030°45'0 0.0
2017-Oct-04 12:26N 46°29' E 030°45'0 0.0
2017-Oct-04 11:59N 46°29' E 030°45'0 0.0
2017-Oct-04 11:29N 46°29' E 030°45'0 0.0
2017-Oct-04 10:59N 46°29' E 030°45'0 0.0
2017-Oct-04 10:26N 46°29' E 030°45'0 0.0
2017-Oct-04 09:59N 46°29' E 030°45'0 0.0
2017-Oct-04 09:26N 46°29' E 030°45'0 0.0
2017-Oct-04 08:56N 46°29' E 030°45'0 0.0
2017-Oct-04 08:23N 46°29' E 030°45'0 0.0
2017-Oct-04 07:59N 46°29' E 030°45'0 0.0
2017-Oct-04 07:26N 46°29' E 030°45'0 0.0
2017-Oct-04 06:50N 46°29' E 030°45'0 0.0
2017-Oct-04 06:20N 46°29' E 030°45'0 0.0
2017-Oct-04 05:50N 46°29' E 030°45'0 0.0
2017-Oct-04 05:29N 46°29' E 030°45'0 0.0
2017-Oct-04 04:59N 46°29' E 030°45'0 0.0
2017-Oct-04 04:29N 46°29' E 030°45'0 0.0
2017-Oct-04 03:59N 46°29' E 030°45'0 0.0
2017-Oct-04 03:29N 46°29' E 030°45'0 0.0
2017-Oct-04 03:00N 46°29' E 030°45'0 0.0
2017-Oct-04 02:27N 46°29' E 030°45'0 0.0
2017-Oct-04 01:51N 46°29' E 030°45'0 0.0
2017-Oct-04 01:27N 46°29' E 030°45'0 0.0
2017-Oct-04 00:51N 46°29' E 030°45'0 0.0
2017-Oct-04 00:27N 46°29' E 030°45'0 0.0
2017-Oct-04 00:00N 46°29' E 030°45'0 0.0
2017-Oct-03 23:30N 46°29' E 030°45'0 0.0
2017-Oct-03 22:57N 46°29' E 030°45'0 0.0
2017-Oct-03 22:24N 46°29' E 030°45'0 0.0
2017-Oct-03 22:00N 46°29' E 030°45'0 0.0
2017-Oct-03 21:21N 46°29' E 030°45'0 0.0
2017-Oct-03 21:00N 46°29' E 030°45'0 0.0
2017-Oct-03 20:30N 46°29' E 030°45'0 0.0
2017-Oct-03 19:57N 46°29' E 030°45'0 0.0
2017-Oct-03 19:24N 46°29' E 030°45'0 0.0
2017-Oct-03 19:00N 46°29' E 030°45'0 0.0
2017-Oct-03 18:21N 46°29' E 030°45'0 0.0
2017-Oct-03 17:54N 46°29' E 030°45'0 0.0
2017-Oct-03 17:24N 46°29' E 030°45'0 0.0
2017-Oct-03 16:48N 46°29' E 030°45'0 0.0
2017-Oct-03 16:24N 46°29' E 030°45'0 0.0
2017-Oct-03 15:54N 46°29' E 030°45'0 0.0
2017-Oct-03 15:27N 46°29' E 030°45'0 0.0
2017-Oct-03 15:00N 46°29' E 030°45'0 0.0
2017-Oct-03 14:00N 46°29' E 030°45'0 0.0
2017-Oct-03 13:00N 46°29' E 030°45'0 0.0
2017-Oct-03 12:21N 46°29' E 030°45'0 0.3
2017-Oct-03 12:00N 46°29' E 030°45'0 0.2
2017-Oct-03 11:30N 46°29' E 030°45'0 0.0
2017-Oct-03 11:00N 46°29' E 030°45'0 0.0
2017-Oct-03 10:30N 46°29' E 030°45'0 0.0
2017-Oct-03 10:00N 46°29' E 030°45'0 0.0
2017-Oct-03 09:30N 46°29' E 030°45'0 0.0
2017-Oct-03 08:54N 46°29' E 030°45'0 0.0
2017-Oct-03 08:27N 46°29' E 030°45'0 0.0
2017-Oct-03 07:54N 46°29' E 030°45'0 0.0
2017-Oct-03 07:30N 46°29' E 030°45'0 0.0
2017-Oct-03 07:00N 46°29' E 030°45'0 0.0
2017-Oct-03 06:30N 46°29' E 030°45'0 0.0
2017-Oct-03 06:00N 46°29' E 030°45'0 0.0
2017-Oct-03 05:24N 46°29' E 030°45'0 0.0
2017-Oct-03 04:57N 46°29' E 030°45'0 0.0
2017-Oct-03 04:30N 46°29' E 030°45'1 2.4
2017-Oct-03 04:00N 46°30' E 030°46'3 5.7
2017-Oct-03 03:30N 46°29' E 030°49'510.5
2017-Oct-03 03:00N 46°24' E 030°52'12910.6
2017-Oct-02 14:52N 44°26' E 029°37'410.7
2017-Oct-02 14:30N 44°23' E 029°35'510.7
2017-Oct-02 14:00N 44°19' E 029°29'510.9
2017-Oct-02 13:30N 44°16' E 029°24'510.6
2017-Oct-02 13:00N 44°12' E 029°18'510.2
2017-Oct-02 12:30N 44°08' E 029°13'510.1
2017-Oct-02 12:00N 44°05' E 029°08'510.2
2017-Oct-02 11:30N 44°00' E 029°05'510.0
2017-Oct-02 11:00N 43°56' E 029°02'5 9.9
2017-Oct-02 10:30N 43°51' E 029°01'5 9.1
2017-Oct-02 10:01N 43°47' E 028°57'5 9.1
2017-Oct-02 09:30N 43°43' E 028°54'5 9.2
2017-Oct-02 09:00N 43°40' E 028°50'5 9.2
2017-Oct-02 08:30N 43°36' E 028°47'  
Track history (hours):
 
Tides and Currents Weather Stations Pressure Air Temp Water Temp Dewpoint Dewpoint Depression Visibility Wind Speed Wind Dir Waves Ship Positions

Ak Hamburg

Last reported at 2017-Oct-06 18:19 UTC. Time now 2017-Oct-17 08:15 UTC.
Position N 40°54' E 028°47'.
Warning: this ship's position is 10 days out of date.

Length 114 m; draft 7.8 m.

Type: Ship. MMSI: 357474000.

Date/timePositionNaut miles runAvg speedWind from/ knotsBaromVisibWave heightAir tempDewpointWater temp
2017-Oct-06 18:19N 40°54' E 028°47'511.0
2017-Oct-06 17:53N 40°56' E 028°53'410.6
2017-Oct-06 17:30N 40°58' E 028°57'95 7.6
2017-Oct-06 05:00N 42°29' E 029°36'6 9.6
2017-Oct-06 04:21N 42°35' E 029°38'3 9.6
2017-Oct-06 04:00N 42°38' E 029°39'5 9.9
2017-Oct-06 03:30N 42°43' E 029°41'510.0
2017-Oct-06 03:00N 42°48' E 029°43'5 9.8
2017-Oct-06 02:30N 42°53' E 029°45'5 9.7
2017-Oct-06 02:00N 42°57' E 029°46'5 9.7
2017-Oct-06 01:30N 43°02' E 029°48'510.0
2017-Oct-06 00:59N 43°07' E 029°51'510.0
2017-Oct-06 00:31N 43°12' E 029°52'510.1
2017-Oct-06 00:00N 43°17' E 029°54'510.1
2017-Oct-05 23:30N 43°21' E 029°56'510.1
2017-Oct-05 23:01N 43°26' E 029°58'510.0
2017-Oct-05 22:30N 43°31' E 030°00'510.0
2017-Oct-05 22:01N 43°36' E 030°02'510.0
2017-Oct-05 21:30N 43°40' E 030°04'510.0
2017-Oct-05 21:01N 43°45' E 030°06'510.0
2017-Oct-05 20:30N 43°50' E 030°08'5 9.8
2017-Oct-05 20:01N 43°55' E 030°10'5 9.8
2017-Oct-05 19:31N 43°59' E 030°12'5 9.8
2017-Oct-05 19:01N 44°04' E 030°14'510.1
2017-Oct-05 18:28N 44°09' E 030°16'510.2
2017-Oct-05 18:00N 44°14' E 030°18'5 9.8
2017-Oct-05 17:31N 44°19' E 030°20'5 9.6
2017-Oct-05 17:01N 44°23' E 030°22'15 9.9
2017-Oct-05 15:31N 44°37' E 030°27'103 9.8
2017-Oct-05 05:00N 46°18' E 030°53'510.5
2017-Oct-05 04:30N 46°23' E 030°51'5 9.9
2017-Oct-05 04:01N 46°28' E 030°49'3 5.9
2017-Oct-05 03:30N 46°30' E 030°45'1 1.1
2017-Oct-05 02:53N 46°29' E 030°45'0 0.0
2017-Oct-05 02:23N 46°29' E 030°45'0 0.0
2017-Oct-05 01:59N 46°29' E 030°45'0 0.0
2017-Oct-05 01:29N 46°29' E 030°45'0 0.0
2017-Oct-05 00:59N 46°29' E 030°45'0 0.0
2017-Oct-05 00:20N 46°29' E 030°45'0 0.0
2017-Oct-04 23:59N 46°29' E 030°45'0 0.0
2017-Oct-04 23:23N 46°29' E 030°45'0 0.0
2017-Oct-04 22:59N 46°29' E 030°45'0 0.0
2017-Oct-04 22:23N 46°29' E 030°45'0 0.0
2017-Oct-04 21:59N 46°29' E 030°45'0 0.0
2017-Oct-04 21:26N 46°29' E 030°45'0 0.0
2017-Oct-04 20:59N 46°29' E 030°45'0 0.0
2017-Oct-04 20:29N 46°29' E 030°45'0 0.0
2017-Oct-04 19:53N 46°29' E 030°45'0 0.0
2017-Oct-04 19:29N 46°29' E 030°45'0 0.0
2017-Oct-04 18:44N 46°29' E 030°45'0 0.0
2017-Oct-04 18:17N 46°29' E 030°45'0 0.0
2017-Oct-04 17:44N 46°29' E 030°45'0 0.0
2017-Oct-04 17:11N 46°29' E 030°45'0 0.0
2017-Oct-04 16:56N 46°29' E 030°45'0 0.0
2017-Oct-04 16:29N 46°29' E 030°45'0 0.0
2017-Oct-04 15:41N 46°29' E 030°45'0 0.1
2017-Oct-04 15:29N 46°29' E 030°45'0 0.0
2017-Oct-04 14:59N 46°29' E 030°45'0 0.0
2017-Oct-04 14:29N 46°29' E 030°45'0 0.0
2017-Oct-04 13:59N 46°29' E 030°45'0 0.0
2017-Oct-04 13:26N 46°29' E 030°45'0 0.0
2017-Oct-04 12:53N 46°29' E 030°45'0 0.0
2017-Oct-04 12:26N 46°29' E 030°45'0 0.0
2017-Oct-04 11:59N 46°29' E 030°45'0 0.0
2017-Oct-04 11:29N 46°29' E 030°45'0 0.0
2017-Oct-04 10:59N 46°29' E 030°45'0 0.0
2017-Oct-04 10:26N 46°29' E 030°45'0 0.0
2017-Oct-04 09:59N 46°29' E 030°45'0 0.0
2017-Oct-04 09:26N 46°29' E 030°45'0 0.0
2017-Oct-04 08:56N 46°29' E 030°45'0 0.0
2017-Oct-04 08:23N 46°29' E 030°45'0 0.0
2017-Oct-04 07:59N 46°29' E 030°45'0 0.0
2017-Oct-04 07:26N 46°29' E 030°45'0 0.0
2017-Oct-04 06:50N 46°29' E 030°45'0 0.0
2017-Oct-04 06:20N 46°29' E 030°45'0 0.0
2017-Oct-04 05:50N 46°29' E 030°45'0 0.0
2017-Oct-04 05:29N 46°29' E 030°45'0 0.0
2017-Oct-04 04:59N 46°29' E 030°45'0 0.0
2017-Oct-04 04:29N 46°29' E 030°45'0 0.0
2017-Oct-04 03:59N 46°29' E 030°45'0 0.0
2017-Oct-04 03:29N 46°29' E 030°45'0 0.0
2017-Oct-04 03:00N 46°29' E 030°45'0 0.0
2017-Oct-04 02:27N 46°29' E 030°45'0 0.0
2017-Oct-04 01:51N 46°29' E 030°45'0 0.0
2017-Oct-04 01:27N 46°29' E 030°45'0 0.0
2017-Oct-04 00:51N 46°29' E 030°45'0 0.0
2017-Oct-04 00:27N 46°29' E 030°45'0 0.0
2017-Oct-04 00:00N 46°29' E 030°45'0 0.0
2017-Oct-03 23:30N 46°29' E 030°45'0 0.0
2017-Oct-03 22:57N 46°29' E 030°45'0 0.0
2017-Oct-03 22:24N 46°29' E 030°45'0 0.0
2017-Oct-03 22:00N 46°29' E 030°45'0 0.0
2017-Oct-03 21:21N 46°29' E 030°45'0 0.0
2017-Oct-03 21:00N 46°29' E 030°45'0 0.0
2017-Oct-03 20:30N 46°29' E 030°45'0 0.0
2017-Oct-03 19:57N 46°29' E 030°45'0 0.0
2017-Oct-03 19:24N 46°29' E 030°45'0 0.0
2017-Oct-03 19:00N 46°29' E 030°45'0 0.0
2017-Oct-03 18:21N 46°29' E 030°45'0 0.0
2017-Oct-03 17:54N 46°29' E 030°45'0 0.0
2017-Oct-03 17:24N 46°29' E 030°45'0 0.0
2017-Oct-03 16:48N 46°29' E 030°45'0 0.0
2017-Oct-03 16:24N 46°29' E 030°45'0 0.0
2017-Oct-03 15:54N 46°29' E 030°45'0 0.0
2017-Oct-03 15:27N 46°29' E 030°45'0 0.0
2017-Oct-03 15:00N 46°29' E 030°45'0 0.0
2017-Oct-03 14:00N 46°29' E 030°45'0 0.0
2017-Oct-03 13:00N 46°29' E 030°45'0 0.0
2017-Oct-03 12:21N 46°29' E 030°45'0 0.3
2017-Oct-03 12:00N 46°29' E 030°45'0 0.2
2017-Oct-03 11:30N 46°29' E 030°45'0 0.0
2017-Oct-03 11:00N 46°29' E 030°45'0 0.0
2017-Oct-03 10:30N 46°29' E 030°45'0 0.0
2017-Oct-03 10:00N 46°29' E 030°45'0 0.0
2017-Oct-03 09:30N 46°29' E 030°45'0 0.0
2017-Oct-03 08:54N 46°29' E 030°45'0 0.0
2017-Oct-03 08:27N 46°29' E 030°45'0 0.0
2017-Oct-03 07:54N 46°29' E 030°45'0 0.0
2017-Oct-03 07:30N 46°29' E 030°45'0 0.0
2017-Oct-03 07:00N 46°29' E 030°45'0 0.0
2017-Oct-03 06:30N 46°29' E 030°45'0 0.0
2017-Oct-03 06:00N 46°29' E 030°45'0 0.0
2017-Oct-03 05:24N 46°29' E 030°45'0 0.0
2017-Oct-03 04:57N 46°29' E 030°45'0 0.0
2017-Oct-03 04:30N 46°29' E 030°45'1 2.4
2017-Oct-03 04:00N 46°30' E 030°46'3 5.7
2017-Oct-03 03:30N 46°29' E 030°49'510.5
2017-Oct-03 03:00N 46°24' E 030°52'12910.6
2017-Oct-02 14:52N 44°26' E 029°37'410.7
2017-Oct-02 14:30N 44°23' E 029°35'510.7
2017-Oct-02 14:00N 44°19' E 029°29'510.9
2017-Oct-02 13:30N 44°16' E 029°24'510.6
2017-Oct-02 13:00N 44°12' E 029°18'510.2
2017-Oct-02 12:30N 44°08' E 029°13'510.1
2017-Oct-02 12:00N 44°05' E 029°08'510.2
2017-Oct-02 11:30N 44°00' E 029°05'510.0
2017-Oct-02 11:00N 43°56' E 029°02'5 9.9
2017-Oct-02 10:30N 43°51' E 029°01'5 9.1
2017-Oct-02 10:01N 43°47' E 028°57'5 9.1
2017-Oct-02 09:30N 43°43' E 028°54'5 9.2
2017-Oct-02 09:00N 43°40' E 028°50'5 9.2
2017-Oct-02 08:30N 43°36' E 028°47'  

Dump ship's entire track history